ADDS METAR Data INFO
IDs: Format: Raw Decoded Include TAF

Data at: 1612 UTC 14 Aug 2018

KBTM 141553Z AUTO 00000KT 10SM CLR 16/06 A3017 RMK AO2 SLP165 T01560056 $
KBTM 141453Z AUTO 00000KT 10SM CLR 12/04 A3017 RMK AO2 SLP167 T01220044 53006 $
KBTM 141353Z AUTO 00000KT 10SM CLR 08/03 A3016 RMK AO2 SLP166 T00830033 $
KBTM 141253Z AUTO 00000KT 10SM CLR 07/03 A3015 RMK AO2 SLP162 T00720028
KBTM 141153Z AUTO 15004KT 10SM CLR 07/03 A3015 RMK AO2 SLP160 T00720028 10167 20061 56001 $
KBTM 141053Z AUTO 13005KT 10SM 07/03 A3015 RMK AO2 SLP160 T00720028 $
KBTM 140953Z AUTO 11003KT 10SM CLR 09/03 A3014 RMK AO2 SLP153 T00940033
KBTM 140853Z AUTO 10005KT 10SM CLR 11/04 A3015 RMK AO2 SLP158 T01060039 51002
KBTM 140753Z AUTO 13004KT 10SM CLR 12/04 A3015 RMK AO2 SLP154 T01170039
KBTM 140653Z AUTO 33003KT 10SM CLR 14/04 A3015 RMK AO2 SLP152 T01390044 402830061
KBTM 140553Z AUTO 00000KT 10SM CLR 17/04 A3014 RMK AO2 SLP149 T01670039 10278 20161 50009
KBTM 140453Z AUTO 14004KT 10SM CLR 17/04 A3014 RMK AO2 SLP153 T01720044
KBTM 140353Z AUTO 00000KT 10SM CLR 19/04 A3013 RMK AO2 SLP150 T01940044
KBTM 140253Z AUTO 36003KT 10SM CLR 22/04 A3011 RMK AO2 SLP147 T02170044 53008
KBTM 140153Z AUTO 02008KT 10SM CLR 24/05 A3009 RMK AO2 SLP143 T02440050
KBTM 140053Z AUTO 35006KT 10SM CLR 27/03 A3008 RMK AO2 SLP137 T02720033
KBTM 132353Z AUTO 32010KT 10SM CLR 27/01 A3008 RMK AO2 SLP137 T02720006 10283 20233 56010
KBTM 132253Z AUTO 25004KT 10SM CLR 27/00 A3009 RMK AO2 SLP137 T02670000
KBTM 132153Z AUTO 34007KT 10SM CLR 28/01 A3010 RMK AO2 SLP137 T02780006
KBTM 132053Z AUTO 00000KT 10SM CLR 26/01 A3012 RMK AO2 SLP142 T02560006 56014
KBTM 131953Z AUTO 00000KT 10SM CLR 26/01 A3013 RMK AO2 SLP144 T02560006
KBTM 131853Z AUTO 00000KT 10SM CLR 24/01 A3015 RMK AO2 SLP148 T02440011
KBTM 131753Z AUTO VRB03KT 10SM CLR 23/02 A3017 RMK AO2 SLP154 T02330017 10233 20061 56015
KBTM 131653Z AUTO 00000KT 10SM CLR 21/02 A3018 RMK AO2 SLP162 T02060022
KBTM 131553Z AUTO 00000KT 10SM CLR 17/02 A3020 RMK AO2 SLP171 T01720017
KBTM 131453Z AUTO 00000KT 10SM CLR 13/02 A3022 RMK AO2 SLP182 T01280022 50000
KBTM 131353Z AUTO 00000KT 10SM CLR 09/02 A3022 RMK AO2 SLP183 T00890017
KBTM 131253Z AUTO 14004KT 10SM CLR 07/01 A3022 RMK AO2 SLP186 T00670006 $
KBTM 131153Z AUTO 12005KT 10SM CLR 07/01 A3022 RMK AO2 SLP182 T00720011 10189 20072 53003 $
KBTM 131053Z AUTO 15003KT 10SM CLR 09/01 A3022 RMK AO2 SLP175 T00940011 $
KBTM 130953Z AUTO 00000KT 10SM CLR 11/01 A3021 RMK AO2 SLP170 T01110011 $
KBTM 130853Z AUTO 14005KT 10SM CLR 13/02 A3021 RMK AO2 SLP167 T01280017 51013 $
KBTM 130753Z AUTO 04004KT 10SM CLR 15/01 A3021 RMK AO2 SLP167 T01500011 $
KBTM 130653Z AUTO 29008KT 10SM CLR 18/01 A3018 RMK AO2 SLP157 T01780006 403060094 $
KBTM 130553Z AUTO 30007KT 10SM CLR 19/02 A3016 RMK AO2 SLP153 T01890017 10294 20189 51018 $
KBTM 130453Z AUTO 31007KT 10SM CLR 21/02 A3015 RMK AO2 SLP148 T02060022 $